sensor_id;sensor_type;location;lat;lon;timestamp;P1;durP1;ratioP1;P2;durP2;ratioP2
46110;SDS011;31849;55.992;37.252;2023-10-19T00:02:55;9.68;;;4.72;;
46110;SDS011;31849;55.992;37.252;2023-10-19T00:08:00;6.45;;;4.65;;
46110;SDS011;31849;55.992;37.252;2023-10-19T00:13:07;14.27;;;5.55;;
46110;SDS011;31849;55.992;37.252;2023-10-19T00:18:12;8.88;;;4.93;;
46110;SDS011;31849;55.992;37.252;2023-10-19T00:23:27;7.60;;;4.57;;
46110;SDS011;31849;55.992;37.252;2023-10-19T00:28:33;6.07;;;4.25;;
46110;SDS011;31849;55.992;37.252;2023-10-19T00:33:38;7.80;;;4.70;;
46110;SDS011;31849;55.992;37.252;2023-10-19T00:38:44;7.45;;;4.90;;
46110;SDS011;31849;55.992;37.252;2023-10-19T00:43:54;7.97;;;4.50;;
46110;SDS011;31849;55.992;37.252;2023-10-19T00:49:05;8.65;;;4.88;;
46110;SDS011;31849;55.992;37.252;2023-10-19T00:54:13;9.00;;;4.90;;
46110;SDS011;31849;55.992;37.252;2023-10-19T00:59:28;7.97;;;4.50;;
46110;SDS011;31849;55.992;37.252;2023-10-19T01:04:37;8.75;;;4.72;;
46110;SDS011;31849;55.992;37.252;2023-10-19T01:09:45;5.57;;;3.97;;
46110;SDS011;31849;55.992;37.252;2023-10-19T01:20:11;8.88;;;5.03;;
46110;SDS011;31849;55.992;37.252;2023-10-19T01:25:23;8.32;;;4.88;;
46110;SDS011;31849;55.992;37.252;2023-10-19T01:30:36;8.38;;;5.30;;
46110;SDS011;31849;55.992;37.252;2023-10-19T01:35:41;8.80;;;4.95;;
46110;SDS011;31849;55.992;37.252;2023-10-19T01:41:04;8.00;;;5.20;;
46110;SDS011;31849;55.992;37.252;2023-10-19T01:46:10;8.68;;;5.40;;
46110;SDS011;31849;55.992;37.252;2023-10-19T01:51:15;7.80;;;5.13;;
46110;SDS011;31849;55.992;37.252;2023-10-19T01:56:21;7.83;;;5.03;;
46110;SDS011;31849;55.992;37.252;2023-10-19T02:01:25;8.50;;;4.72;;
46110;SDS011;31849;55.992;37.252;2023-10-19T02:06:32;6.30;;;4.47;;
46110;SDS011;31849;55.992;37.252;2023-10-19T02:11:40;6.28;;;4.18;;
46110;SDS011;31849;55.992;37.252;2023-10-19T02:16:45;5.38;;;4.10;;
46110;SDS011;31849;55.992;37.252;2023-10-19T02:21:54;7.90;;;4.25;;
46110;SDS011;31849;55.992;37.252;2023-10-19T02:27:00;5.18;;;3.72;;
46110;SDS011;31849;55.992;37.252;2023-10-19T02:32:03;5.55;;;3.70;;
46110;SDS011;31849;55.992;37.252;2023-10-19T02:37:08;5.22;;;3.50;;
46110;SDS011;31849;55.992;37.252;2023-10-19T02:42:13;5.78;;;4.15;;
46110;SDS011;31849;55.992;37.252;2023-10-19T02:47:19;5.13;;;3.65;;
46110;SDS011;31849;55.992;37.252;2023-10-19T02:52:23;7.03;;;4.20;;
46110;SDS011;31849;55.992;37.252;2023-10-19T02:57:27;5.35;;;4.22;;
46110;SDS011;31849;55.992;37.252;2023-10-19T03:02:33;5.95;;;4.35;;
46110;SDS011;31849;55.992;37.252;2023-10-19T03:07:38;9.82;;;4.53;;
46110;SDS011;31849;55.992;37.252;2023-10-19T03:12:44;6.22;;;4.47;;
46110;SDS011;31849;55.992;37.252;2023-10-19T03:17:48;8.70;;;5.13;;
46110;SDS011;31849;55.992;37.252;2023-10-19T03:22:52;7.57;;;4.88;;
46110;SDS011;31849;55.992;37.252;2023-10-19T03:28:01;7.20;;;4.90;;
46110;SDS011;31849;55.992;37.252;2023-10-19T03:33:10;9.50;;;5.03;;
46110;SDS011;31849;55.992;37.252;2023-10-19T03:38:14;6.82;;;5.15;;
46110;SDS011;31849;55.992;37.252;2023-10-19T03:43:20;7.75;;;5.53;;
46110;SDS011;31849;55.992;37.252;2023-10-19T03:48:24;7.20;;;5.20;;
46110;SDS011;31849;55.992;37.252;2023-10-19T03:53:32;6.88;;;5.50;;
46110;SDS011;31849;55.992;37.252;2023-10-19T03:58:39;10.77;;;6.03;;
46110;SDS011;31849;55.992;37.252;2023-10-19T04:03:46;9.30;;;6.20;;
46110;SDS011;31849;55.992;37.252;2023-10-19T04:08:51;8.88;;;6.55;;
46110;SDS011;31849;55.992;37.252;2023-10-19T04:13:56;9.98;;;6.35;;
46110;SDS011;31849;55.992;37.252;2023-10-19T04:19:01;9.85;;;7.10;;
46110;SDS011;31849;55.992;37.252;2023-10-19T04:24:06;9.60;;;6.80;;
46110;SDS011;31849;55.992;37.252;2023-10-19T04:29:12;8.23;;;6.35;;
46110;SDS011;31849;55.992;37.252;2023-10-19T04:34:19;9.73;;;6.72;;
46110;SDS011;31849;55.992;37.252;2023-10-19T04:39:23;8.75;;;6.70;;
46110;SDS011;31849;55.992;37.252;2023-10-19T04:44:28;9.10;;;6.55;;
46110;SDS011;31849;55.992;37.252;2023-10-19T04:49:33;8.73;;;6.22;;
46110;SDS011;31849;55.992;37.252;2023-10-19T04:54:37;9.25;;;7.07;;
46110;SDS011;31849;55.992;37.252;2023-10-19T04:59:42;10.43;;;7.32;;
46110;SDS011;31849;55.992;37.252;2023-10-19T05:04:47;10.70;;;7.28;;
46110;SDS011;31849;55.992;37.252;2023-10-19T05:09:51;8.85;;;6.75;;
46110;SDS011;31849;55.992;37.252;2023-10-19T05:14:56;11.13;;;8.00;;
46110;SDS011;31849;55.992;37.252;2023-10-19T05:20:00;12.18;;;7.82;;
46110;SDS011;31849;55.992;37.252;2023-10-19T05:25:05;13.48;;;8.68;;
46110;SDS011;31849;55.992;37.252;2023-10-19T05:30:11;12.38;;;8.68;;
46110;SDS011;31849;55.992;37.252;2023-10-19T05:35:15;12.02;;;8.48;;
46110;SDS011;31849;55.992;37.252;2023-10-19T05:40:24;11.18;;;9.23;;
46110;SDS011;31849;55.992;37.252;2023-10-19T05:45:33;10.98;;;9.10;;
46110;SDS011;31849;55.992;37.252;2023-10-19T05:50:42;12.30;;;8.88;;
46110;SDS011;31849;55.992;37.252;2023-10-19T05:55:45;13.25;;;8.88;;
46110;SDS011;31849;55.992;37.252;2023-10-19T06:00:50;10.82;;;8.57;;
46110;SDS011;31849;55.992;37.252;2023-10-19T06:05:54;10.32;;;7.35;;
46110;SDS011;31849;55.992;37.252;2023-10-19T06:11:00;10.32;;;7.80;;
46110;SDS011;31849;55.992;37.252;2023-10-19T06:16:08;10.32;;;8.75;;
46110;SDS011;31849;55.992;37.252;2023-10-19T06:26:15;12.90;;;10.50;;
46110;SDS011;31849;55.992;37.252;2023-10-19T06:31:20;15.82;;;11.60;;
46110;SDS011;31849;55.992;37.252;2023-10-19T06:36:24;14.77;;;11.75;;
46110;SDS011;31849;55.992;37.252;2023-10-19T06:41:27;18.92;;;14.50;;
46110;SDS011;31849;55.992;37.252;2023-10-19T06:46:32;11.07;;;8.35;;
46110;SDS011;31849;55.992;37.252;2023-10-19T06:51:38;6.72;;;5.28;;
46110;SDS011;31849;55.992;37.252;2023-10-19T06:56:42;10.07;;;6.63;;
46110;SDS011;31849;55.992;37.252;2023-10-19T07:06:52;11.23;;;7.60;;
46110;SDS011;31849;55.992;37.252;2023-10-19T07:11:55;12.20;;;7.85;;
46110;SDS011;31849;55.992;37.252;2023-10-19T07:17:00;9.60;;;7.35;;
46110;SDS011;31849;55.992;37.252;2023-10-19T07:22:04;10.70;;;7.30;;
46110;SDS011;31849;55.992;37.252;2023-10-19T07:27:11;6.45;;;5.30;;
46110;SDS011;31849;55.992;37.252;2023-10-19T07:32:39;8.30;;;5.78;;
46110;SDS011;31849;55.992;37.252;2023-10-19T07:37:43;7.00;;;5.68;;
46110;SDS011;31849;55.992;37.252;2023-10-19T07:42:46;8.13;;;4.97;;
46110;SDS011;31849;55.992;37.252;2023-10-19T07:47:56;6.28;;;4.88;;
46110;SDS011;31849;55.992;37.252;2023-10-19T07:53:08;8.52;;;4.75;;
46110;SDS011;31849;55.992;37.252;2023-10-19T07:58:12;5.60;;;4.90;;
46110;SDS011;31849;55.992;37.252;2023-10-19T08:03:17;6.65;;;5.32;;
46110;SDS011;31849;55.992;37.252;2023-10-19T08:08:21;6.10;;;5.25;;
46110;SDS011;31849;55.992;37.252;2023-10-19T08:13:27;5.13;;;4.05;;
46110;SDS011;31849;55.992;37.252;2023-10-19T08:18:35;5.05;;;3.95;;
46110;SDS011;31849;55.992;37.252;2023-10-19T08:23:38;5.75;;;4.00;;
46110;SDS011;31849;55.992;37.252;2023-10-19T08:28:42;5.70;;;5.07;;
46110;SDS011;31849;55.992;37.252;2023-10-19T08:33:47;8.02;;;3.97;;
46110;SDS011;31849;55.992;37.252;2023-10-19T08:38:50;4.43;;;3.63;;
46110;SDS011;31849;55.992;37.252;2023-10-19T08:43:55;5.18;;;3.83;;
46110;SDS011;31849;55.992;37.252;2023-10-19T08:49:01;5.43;;;3.80;;
46110;SDS011;31849;55.992;37.252;2023-10-19T08:59:08;7.53;;;5.75;;
46110;SDS011;31849;55.992;37.252;2023-10-19T09:09:18;7.88;;;6.65;;
46110;SDS011;31849;55.992;37.252;2023-10-19T09:14:30;7.83;;;6.77;;
46110;SDS011;31849;55.992;37.252;2023-10-19T09:19:40;9.90;;;6.68;;
46110;SDS011;31849;55.992;37.252;2023-10-19T09:24:46;9.05;;;7.10;;
46110;SDS011;31849;55.992;37.252;2023-10-19T09:29:51;9.38;;;8.02;;
46110;SDS011;31849;55.992;37.252;2023-10-19T09:34:56;9.90;;;8.18;;
46110;SDS011;31849;55.992;37.252;2023-10-19T09:40:02;12.30;;;8.95;;
46110;SDS011;31849;55.992;37.252;2023-10-19T09:45:07;11.98;;;9.57;;
46110;SDS011;31849;55.992;37.252;2023-10-19T09:50:14;10.77;;;8.73;;
46110;SDS011;31849;55.992;37.252;2023-10-19T10:00:29;12.63;;;9.90;;
46110;SDS011;31849;55.992;37.252;2023-10-19T10:05:47;12.80;;;10.60;;
46110;SDS011;31849;55.992;37.252;2023-10-19T10:10:51;11.20;;;9.10;;
46110;SDS011;31849;55.992;37.252;2023-10-19T10:15:55;11.68;;;9.88;;
46110;SDS011;31849;55.992;37.252;2023-10-19T10:21:06;14.88;;;11.98;;
46110;SDS011;31849;55.992;37.252;2023-10-19T10:26:11;14.93;;;11.48;;
46110;SDS011;31849;55.992;37.252;2023-10-19T10:31:19;16.38;;;11.73;;
46110;SDS011;31849;55.992;37.252;2023-10-19T10:36:26;11.35;;;9.95;;
46110;SDS011;31849;55.992;37.252;2023-10-19T10:41:54;11.45;;;8.75;;
46110;SDS011;31849;55.992;37.252;2023-10-19T10:46:58;12.75;;;9.90;;
46110;SDS011;31849;55.992;37.252;2023-10-19T10:52:03;11.85;;;8.35;;
46110;SDS011;31849;55.992;37.252;2023-10-19T10:57:07;8.43;;;6.00;;
46110;SDS011;31849;55.992;37.252;2023-10-19T11:02:16;10.80;;;8.38;;
46110;SDS011;31849;55.992;37.252;2023-10-19T11:07:22;12.70;;;8.55;;
46110;SDS011;31849;55.992;37.252;2023-10-19T11:12:26;10.13;;;8.05;;
46110;SDS011;31849;55.992;37.252;2023-10-19T11:17:30;10.63;;;8.27;;
46110;SDS011;31849;55.992;37.252;2023-10-19T11:22:35;10.45;;;8.38;;
46110;SDS011;31849;55.992;37.252;2023-10-19T11:27:51;10.88;;;8.20;;
46110;SDS011;31849;55.992;37.252;2023-10-19T11:32:57;10.80;;;8.32;;
46110;SDS011;31849;55.992;37.252;2023-10-19T11:38:04;10.95;;;7.05;;
46110;SDS011;31849;55.992;37.252;2023-10-19T11:43:08;8.35;;;6.95;;
46110;SDS011;31849;55.992;37.252;2023-10-19T11:48:12;7.63;;;6.72;;
46110;SDS011;31849;55.992;37.252;2023-10-19T11:53:17;9.50;;;7.20;;
46110;SDS011;31849;55.992;37.252;2023-10-19T11:58:21;9.93;;;7.68;;
46110;SDS011;31849;55.992;37.252;2023-10-19T12:03:25;10.55;;;7.85;;
46110;SDS011;31849;55.992;37.252;2023-10-19T12:08:30;11.35;;;9.30;;
46110;SDS011;31849;55.992;37.252;2023-10-19T12:13:34;13.73;;;10.73;;
46110;SDS011;31849;55.992;37.252;2023-10-19T12:18:39;14.43;;;11.15;;
46110;SDS011;31849;55.992;37.252;2023-10-19T12:23:45;13.50;;;9.52;;
46110;SDS011;31849;55.992;37.252;2023-10-19T12:28:53;11.38;;;9.60;;
46110;SDS011;31849;55.992;37.252;2023-10-19T12:33:57;10.73;;;8.77;;
46110;SDS011;31849;55.992;37.252;2023-10-19T12:39:02;14.50;;;10.18;;
46110;SDS011;31849;55.992;37.252;2023-10-19T12:44:11;14.05;;;11.00;;
46110;SDS011;31849;55.992;37.252;2023-10-19T12:49:17;14.10;;;10.63;;
46110;SDS011;31849;55.992;37.252;2023-10-19T12:54:28;13.82;;;11.05;;
46110;SDS011;31849;55.992;37.252;2023-10-19T12:59:32;15.38;;;10.98;;
46110;SDS011;31849;55.992;37.252;2023-10-19T13:04:39;16.17;;;10.82;;
46110;SDS011;31849;55.992;37.252;2023-10-19T13:09:44;16.38;;;11.70;;
46110;SDS011;31849;55.992;37.252;2023-10-19T13:14:48;14.60;;;11.38;;
46110;SDS011;31849;55.992;37.252;2023-10-19T13:19:54;17.33;;;12.35;;
46110;SDS011;31849;55.992;37.252;2023-10-19T13:25:02;18.65;;;13.60;;
46110;SDS011;31849;55.992;37.252;2023-10-19T13:30:08;18.42;;;12.52;;
46110;SDS011;31849;55.992;37.252;2023-10-19T13:35:13;19.05;;;13.93;;
46110;SDS011;31849;55.992;37.252;2023-10-19T13:40:18;17.63;;;13.13;;
46110;SDS011;31849;55.992;37.252;2023-10-19T13:45:22;16.70;;;12.38;;
46110;SDS011;31849;55.992;37.252;2023-10-19T13:50:26;18.37;;;12.47;;
46110;SDS011;31849;55.992;37.252;2023-10-19T14:00:40;19.27;;;13.73;;
46110;SDS011;31849;55.992;37.252;2023-10-19T14:05:45;19.20;;;13.77;;
46110;SDS011;31849;55.992;37.252;2023-10-19T14:10:51;18.67;;;12.82;;
46110;SDS011;31849;55.992;37.252;2023-10-19T14:15:55;16.60;;;12.93;;
46110;SDS011;31849;55.992;37.252;2023-10-19T14:20:59;10.38;;;8.63;;
46110;SDS011;31849;55.992;37.252;2023-10-19T14:26:05;12.68;;;8.82;;
46110;SDS011;31849;55.992;37.252;2023-10-19T14:31:08;12.00;;;8.65;;
46110;SDS011;31849;55.992;37.252;2023-10-19T14:36:13;13.32;;;9.60;;
46110;SDS011;31849;55.992;37.252;2023-10-19T14:41:18;12.55;;;10.57;;
46110;SDS011;31849;55.992;37.252;2023-10-19T14:46:22;27.58;;;17.50;;
46110;SDS011;31849;55.992;37.252;2023-10-19T14:51:25;22.38;;;13.45;;
46110;SDS011;31849;55.992;37.252;2023-10-19T14:56:31;21.17;;;14.73;;
46110;SDS011;31849;55.992;37.252;2023-10-19T15:01:34;24.08;;;17.65;;
46110;SDS011;31849;55.992;37.252;2023-10-19T15:06:38;26.80;;;18.07;;
46110;SDS011;31849;55.992;37.252;2023-10-19T15:16:48;22.15;;;15.50;;
46110;SDS011;31849;55.992;37.252;2023-10-19T15:21:53;22.00;;;15.20;;
46110;SDS011;31849;55.992;37.252;2023-10-19T15:26:58;21.85;;;15.27;;
46110;SDS011;31849;55.992;37.252;2023-10-19T15:32:01;18.33;;;13.32;;
46110;SDS011;31849;55.992;37.252;2023-10-19T15:37:06;19.10;;;13.20;;
46110;SDS011;31849;55.992;37.252;2023-10-19T15:42:14;20.95;;;13.15;;
46110;SDS011;31849;55.992;37.252;2023-10-19T15:47:19;19.15;;;13.40;;
46110;SDS011;31849;55.992;37.252;2023-10-19T15:52:24;18.27;;;13.87;;
46110;SDS011;31849;55.992;37.252;2023-10-19T15:57:31;21.40;;;13.80;;
46110;SDS011;31849;55.992;37.252;2023-10-19T16:02:35;20.08;;;12.95;;
46110;SDS011;31849;55.992;37.252;2023-10-19T16:07:39;16.23;;;12.50;;
46110;SDS011;31849;55.992;37.252;2023-10-19T16:12:44;17.33;;;12.55;;
46110;SDS011;31849;55.992;37.252;2023-10-19T16:17:48;19.98;;;13.27;;
46110;SDS011;31849;55.992;37.252;2023-10-19T16:22:52;17.40;;;12.15;;
46110;SDS011;31849;55.992;37.252;2023-10-19T16:27:58;18.20;;;13.10;;
46110;SDS011;31849;55.992;37.252;2023-10-19T16:33:02;19.05;;;13.20;;
46110;SDS011;31849;55.992;37.252;2023-10-19T16:38:06;22.35;;;14.05;;
46110;SDS011;31849;55.992;37.252;2023-10-19T16:43:15;20.75;;;14.57;;
46110;SDS011;31849;55.992;37.252;2023-10-19T16:48:19;20.83;;;14.65;;
46110;SDS011;31849;55.992;37.252;2023-10-19T16:53:23;19.10;;;14.27;;
46110;SDS011;31849;55.992;37.252;2023-10-19T16:58:28;20.80;;;15.25;;
46110;SDS011;31849;55.992;37.252;2023-10-19T17:03:31;20.15;;;15.05;;
46110;SDS011;31849;55.992;37.252;2023-10-19T17:08:35;22.08;;;16.23;;
46110;SDS011;31849;55.992;37.252;2023-10-19T17:13:40;20.00;;;15.20;;
46110;SDS011;31849;55.992;37.252;2023-10-19T17:18:44;18.88;;;14.45;;
46110;SDS011;31849;55.992;37.252;2023-10-19T17:23:49;19.23;;;13.77;;
46110;SDS011;31849;55.992;37.252;2023-10-19T17:28:54;15.65;;;11.98;;
46110;SDS011;31849;55.992;37.252;2023-10-19T17:33:58;17.35;;;11.80;;
46110;SDS011;31849;55.992;37.252;2023-10-19T17:39:01;15.98;;;10.77;;
46110;SDS011;31849;55.992;37.252;2023-10-19T17:44:07;12.20;;;10.30;;
46110;SDS011;31849;55.992;37.252;2023-10-19T17:49:10;14.55;;;10.73;;
46110;SDS011;31849;55.992;37.252;2023-10-19T17:54:14;15.85;;;11.30;;
46110;SDS011;31849;55.992;37.252;2023-10-19T17:59:19;14.00;;;11.23;;
46110;SDS011;31849;55.992;37.252;2023-10-19T18:04:23;16.48;;;11.10;;
46110;SDS011;31849;55.992;37.252;2023-10-19T18:09:27;14.57;;;10.80;;
46110;SDS011;31849;55.992;37.252;2023-10-19T18:14:33;15.93;;;11.38;;
46110;SDS011;31849;55.992;37.252;2023-10-19T18:19:37;14.88;;;11.07;;
46110;SDS011;31849;55.992;37.252;2023-10-19T18:24:41;17.33;;;11.53;;
46110;SDS011;31849;55.992;37.252;2023-10-19T18:29:46;15.75;;;11.48;;
46110;SDS011;31849;55.992;37.252;2023-10-19T18:34:50;15.07;;;11.10;;
46110;SDS011;31849;55.992;37.252;2023-10-19T18:39:54;16.70;;;11.20;;
46110;SDS011;31849;55.992;37.252;2023-10-19T18:45:00;14.23;;;11.02;;
46110;SDS011;31849;55.992;37.252;2023-10-19T18:50:09;16.15;;;11.80;;
46110;SDS011;31849;55.992;37.252;2023-10-19T18:55:33;16.13;;;11.13;;
46110;SDS011;31849;55.992;37.252;2023-10-19T19:00:38;18.73;;;11.85;;
46110;SDS011;31849;55.992;37.252;2023-10-19T19:10:44;15.23;;;11.07;;
46110;SDS011;31849;55.992;37.252;2023-10-19T19:15:53;15.98;;;11.90;;
46110;SDS011;31849;55.992;37.252;2023-10-19T19:21:00;15.95;;;11.65;;
46110;SDS011;31849;55.992;37.252;2023-10-19T19:26:05;15.93;;;11.45;;
46110;SDS011;31849;55.992;37.252;2023-10-19T19:31:14;15.32;;;11.43;;
46110;SDS011;31849;55.992;37.252;2023-10-19T19:36:19;17.00;;;11.15;;
46110;SDS011;31849;55.992;37.252;2023-10-19T19:41:22;17.38;;;12.20;;
46110;SDS011;31849;55.992;37.252;2023-10-19T19:46:28;16.10;;;11.35;;
46110;SDS011;31849;55.992;37.252;2023-10-19T19:51:33;17.38;;;11.73;;
46110;SDS011;31849;55.992;37.252;2023-10-19T19:56:38;18.38;;;13.20;;
46110;SDS011;31849;55.992;37.252;2023-10-19T20:01:43;19.03;;;13.63;;
46110;SDS011;31849;55.992;37.252;2023-10-19T20:06:48;20.85;;;13.57;;
46110;SDS011;31849;55.992;37.252;2023-10-19T20:11:52;22.42;;;14.10;;
46110;SDS011;31849;55.992;37.252;2023-10-19T20:16:56;17.05;;;13.00;;
46110;SDS011;31849;55.992;37.252;2023-10-19T20:22:00;16.88;;;13.05;;
46110;SDS011;31849;55.992;37.252;2023-10-19T20:27:05;17.55;;;12.65;;
46110;SDS011;31849;55.992;37.252;2023-10-19T20:32:12;17.65;;;13.13;;
46110;SDS011;31849;55.992;37.252;2023-10-19T20:37:16;17.15;;;13.13;;
46110;SDS011;31849;55.992;37.252;2023-10-19T20:42:19;17.33;;;12.77;;
46110;SDS011;31849;55.992;37.252;2023-10-19T20:47:24;15.13;;;11.77;;
46110;SDS011;31849;55.992;37.252;2023-10-19T20:52:29;16.85;;;12.25;;
46110;SDS011;31849;55.992;37.252;2023-10-19T20:57:32;18.40;;;12.32;;
46110;SDS011;31849;55.992;37.252;2023-10-19T21:02:37;14.70;;;11.68;;
46110;SDS011;31849;55.992;37.252;2023-10-19T21:07:42;16.27;;;11.35;;
46110;SDS011;31849;55.992;37.252;2023-10-19T21:12:46;18.40;;;11.65;;
46110;SDS011;31849;55.992;37.252;2023-10-19T21:17:51;14.33;;;10.63;;
46110;SDS011;31849;55.992;37.252;2023-10-19T21:22:55;14.18;;;10.68;;
46110;SDS011;31849;55.992;37.252;2023-10-19T21:27:59;14.77;;;10.90;;
46110;SDS011;31849;55.992;37.252;2023-10-19T21:33:04;18.35;;;11.63;;
46110;SDS011;31849;55.992;37.252;2023-10-19T21:38:09;15.02;;;11.55;;
46110;SDS011;31849;55.992;37.252;2023-10-19T21:43:13;19.17;;;12.77;;
46110;SDS011;31849;55.992;37.252;2023-10-19T21:48:18;19.08;;;11.27;;
46110;SDS011;31849;55.992;37.252;2023-10-19T21:53:22;16.50;;;11.90;;
46110;SDS011;31849;55.992;37.252;2023-10-19T21:58:26;17.73;;;11.60;;
46110;SDS011;31849;55.992;37.252;2023-10-19T22:03:31;15.48;;;11.55;;
46110;SDS011;31849;55.992;37.252;2023-10-19T22:08:36;13.90;;;10.85;;
46110;SDS011;31849;55.992;37.252;2023-10-19T22:13:39;17.65;;;12.00;;
46110;SDS011;31849;55.992;37.252;2023-10-19T22:18:44;16.75;;;11.65;;
46110;SDS011;31849;55.992;37.252;2023-10-19T22:23:48;16.73;;;11.60;;
46110;SDS011;31849;55.992;37.252;2023-10-19T22:28:52;17.00;;;11.47;;
46110;SDS011;31849;55.992;37.252;2023-10-19T22:33:58;17.97;;;11.80;;
46110;SDS011;31849;55.992;37.252;2023-10-19T22:39:02;14.27;;;10.32;;
46110;SDS011;31849;55.992;37.252;2023-10-19T22:44:06;16.20;;;10.30;;
46110;SDS011;31849;55.992;37.252;2023-10-19T22:49:11;14.93;;;9.70;;
46110;SDS011;31849;55.992;37.252;2023-10-19T22:54:15;14.63;;;9.55;;
46110;SDS011;31849;55.992;37.252;2023-10-19T22:59:18;16.00;;;10.10;;
46110;SDS011;31849;55.992;37.252;2023-10-19T23:04:23;14.98;;;9.82;;
46110;SDS011;31849;55.992;37.252;2023-10-19T23:09:27;14.77;;;9.63;;
46110;SDS011;31849;55.992;37.252;2023-10-19T23:14:33;12.90;;;8.70;;
46110;SDS011;31849;55.992;37.252;2023-10-19T23:19:38;11.43;;;7.07;;
46110;SDS011;31849;55.992;37.252;2023-10-19T23:24:44;10.27;;;7.22;;
46110;SDS011;31849;55.992;37.252;2023-10-19T23:29:51;10.15;;;6.55;;
46110;SDS011;31849;55.992;37.252;2023-10-19T23:34:57;13.77;;;7.82;;
46110;SDS011;31849;55.992;37.252;2023-10-19T23:40:01;13.15;;;8.32;;
46110;SDS011;31849;55.992;37.252;2023-10-19T23:45:06;14.90;;;9.30;;
46110;SDS011;31849;55.992;37.252;2023-10-19T23:50:14;18.92;;;10.48;;
46110;SDS011;31849;55.992;37.252;2023-10-19T23:55:18;20.60;;;11.32;;
